createdAt,value
2023-04-27T08:06:16.405Z,8.00
2023-04-27T08:08:43.249Z,8.10
2023-04-27T08:11:11.502Z,8.10
2023-04-27T08:13:38.056Z,8.20
2023-04-27T08:16:04.925Z,8.20
2023-04-27T08:18:31.452Z,8.20
2023-04-27T08:20:58.320Z,8.30
2023-04-27T08:23:28.576Z,8.30
2023-04-27T08:25:55.379Z,8.30
2023-04-27T08:28:23.144Z,8.30
2023-04-27T08:30:49.733Z,8.30
2023-04-27T08:33:16.659Z,8.40
2023-04-27T08:35:43.262Z,8.40
2023-04-27T08:38:09.773Z,8.50
2023-04-27T08:40:36.386Z,8.50
2023-04-27T08:43:02.907Z,8.50
2023-04-27T08:45:29.432Z,8.60
2023-04-27T08:47:56.061Z,8.60
2023-04-27T08:50:24.122Z,8.70
2023-04-27T08:57:56.411Z,9.10
2023-04-27T09:00:25.162Z,8.90
2023-04-27T09:02:52.012Z,8.90
2023-04-27T09:05:27.509Z,9.00
2023-04-27T09:07:57.732Z,9.00
2023-04-27T09:10:24.518Z,9.00
2023-04-27T09:12:56.059Z,9.00
2023-04-27T09:15:22.872Z,9.00
2023-04-27T09:17:56.680Z,9.20
2023-04-27T09:20:24.067Z,9.20
2023-04-27T09:22:54.968Z,9.30
2023-04-27T09:25:28.282Z,9.30
2023-04-27T09:27:56.356Z,9.40
2023-04-27T09:30:22.937Z,9.40
2023-04-27T09:32:57.047Z,9.30
2023-04-27T09:35:26.604Z,9.30
2023-04-27T09:37:54.784Z,9.40
2023-04-27T09:47:52.467Z,9.50
2023-04-27T09:52:46.988Z,9.70
2023-04-27T09:55:25.519Z,9.80
2023-04-27T09:58:37.200Z,9.80
2023-04-27T10:03:57.622Z,10.00
2023-04-27T10:11:44.326Z,9.90
2023-04-27T10:14:20.327Z,9.90
2023-04-27T10:16:53.437Z,10.00
2023-04-27T10:19:21.354Z,10.00
2023-04-27T10:21:57.355Z,10.00
2023-04-27T10:24:37.827Z,10.00
2023-04-27T10:27:09.753Z,10.00
2023-04-27T20:49:31.734Z,7.70
2023-04-27T20:52:01.738Z,7.70
2023-04-27T20:54:28.453Z,7.70
2023-04-27T20:56:54.993Z,7.70
2023-04-27T20:59:21.537Z,7.70
2023-04-27T21:01:48.070Z,7.60
2023-04-27T21:04:14.918Z,7.60
2023-04-27T21:06:41.734Z,7.60
2023-04-27T21:11:36.119Z,7.60
2023-04-27T21:14:02.693Z,7.50
2023-04-27T21:18:56.440Z,7.50
2023-04-27T21:21:24.317Z,7.50
2023-04-27T21:24:00.531Z,7.50
2023-04-27T21:26:31.209Z,7.40
2023-04-27T21:28:57.916Z,7.40
2023-04-27T21:31:24.516Z,7.40
2023-04-27T21:33:52.805Z,7.40
2023-04-27T21:36:19.767Z,7.40
2023-04-27T21:38:47.060Z,7.40
2023-04-27T21:41:13.610Z,7.30
2023-04-27T21:43:41.871Z,7.30
2023-04-27T21:46:09.197Z,7.30
2023-04-27T21:48:36.193Z,7.30
2023-04-27T21:51:03.029Z,7.30
2023-04-27T21:53:30.517Z,7.20
2023-04-27T21:55:57.156Z,7.20
2023-04-27T21:58:24.161Z,7.20
2023-04-27T22:00:50.875Z,7.20
2023-04-27T22:03:17.949Z,7.20
2023-04-27T22:05:45.248Z,7.20
2023-04-27T22:08:12.033Z,7.10
2023-04-27T22:10:38.677Z,7.10
2023-04-27T22:13:17.545Z,7.10
2023-04-27T22:15:46.092Z,7.10
2023-04-27T22:18:14.182Z,7.10
2023-04-27T22:20:41.440Z,7.10
2023-04-27T22:23:09.141Z,7.00
2023-04-27T22:25:35.721Z,7.00
2023-04-27T22:28:02.339Z,7.10
2023-04-27T22:30:29.532Z,7.10
2023-04-27T22:32:56.714Z,7.00
2023-04-27T22:35:26.956Z,7.00
2023-04-27T22:37:55.617Z,6.90
2023-04-27T22:40:22.472Z,6.90
2023-04-27T22:42:48.997Z,7.00
2023-04-27T22:45:15.632Z,7.00
2023-04-27T22:47:44.311Z,7.00
2023-04-27T22:50:11.862Z,7.00
2023-04-27T22:52:41.948Z,7.00
2023-04-27T22:57:36.419Z,6.90
2023-04-27T23:00:08.835Z,6.90
2023-04-27T23:02:35.528Z,6.90
2023-04-27T23:05:02.148Z,6.70
2023-04-27T23:07:28.658Z,6.70
2023-04-27T23:09:55.957Z,6.70
2023-04-27T23:12:22.769Z,6.70
2023-04-27T23:14:49.368Z,6.60
2023-04-27T23:17:15.860Z,6.60
